Time;durP1;ratioP1;P1;durP2;ratioP2;P2;SDS_P1;SDS_P2;PMS_P1;PMS_P2;Temp;Humidity;BMP_temperature;BMP_pressure;BME280_temperature;BME280_humidity;BME280_pressure;Samples;Min_cycle;Max_cycle;Signal;HPM_P1;HPM_P2
2023/08/23 00:01:59;;;;;;;1.23;1.00;;;20.40;99.90;;;;;;4160091;28;20048;-63
2023/08/23 00:03:59;;;;;;;2.15;0.95;;;20.40;99.90;;;;;;4157569;28;20049;-64
2023/08/23 00:06:00;;;;;;;2.30;1.30;;;20.40;99.90;;;;;;4155471;28;20083;-64
2023/08/23 00:08:00;;;;;;;3.20;1.25;;;20.40;99.90;;;;;;4160847;28;20036;-64
2023/08/23 00:10:02;;;;;;;2.00;1.20;;;20.40;99.90;;;;;;4159443;28;20037;-65
2023/08/23 00:12:03;;;;;;;2.13;0.90;;;20.40;99.90;;;;;;4158914;28;20571;-64
2023/08/23 00:14:04;;;;;;;3.88;1.17;;;20.40;99.90;;;;;;4160053;28;20029;-64
2023/08/23 00:16:05;;;;;;;1.42;1.10;;;20.40;99.90;;;;;;4160371;28;20111;-63
2023/08/23 00:18:05;;;;;;;1.33;1.00;;;20.40;99.90;;;;;;4158979;28;20029;-64
2023/08/23 00:20:06;;;;;;;1.33;1.00;;;20.40;99.90;;;;;;4160500;28;20021;-64
2023/08/23 00:22:07;;;;;;;3.05;1.25;;;20.40;99.90;;;;;;4160312;28;20103;-64
2023/08/23 00:24:08;;;;;;;2.78;1.08;;;20.40;99.90;;;;;;4160716;28;20026;-64
2023/08/23 00:26:11;;;;;;;1.63;1.30;;;20.40;99.90;;;;;;4159754;28;20040;-64
2023/08/23 00:28:11;;;;;;;;;;;20.40;99.90;;;;;;4159858;28;20035;-64
2023/08/23 00:30:12;;;;;;;2.90;1.08;;;20.30;99.90;;;;;;4159553;28;19960;-64
2023/08/23 00:32:13;;;;;;;2.10;1.48;;;20.40;99.90;;;;;;4160384;28;20037;-63
2023/08/23 00:34:13;;;;;;;2.30;1.30;;;20.30;99.90;;;;;;4160319;28;20033;-64
2023/08/23 00:36:14;;;;;;;0.93;0.68;;;20.30;99.90;;;;;;4160065;28;20366;-64
2023/08/23 00:38:14;;;;;;;1.20;1.10;;;20.20;99.90;;;;;;4158925;28;20037;-63
2023/08/23 00:40:15;;;;;;;1.92;1.20;;;20.10;99.90;;;;;;4159894;28;20120;-64
2023/08/23 00:42:15;;;;;;;3.80;1.30;;;20.10;99.90;;;;;;4160307;28;20440;-64
2023/08/23 00:44:16;;;;;;;2.80;1.33;;;20.00;99.90;;;;;;4159061;28;20482;-64
2023/08/23 00:46:18;;;;;;;1.10;1.00;;;20.00;99.90;;;;;;4159831;28;20090;-64
2023/08/23 00:48:19;;;;;;;1.63;1.27;;;19.90;99.90;;;;;;4162235;28;20111;-64
2023/08/23 00:50:21;;;;;;;1.55;1.33;;;19.90;99.90;;;;;;4163289;28;20037;-71
2023/08/23 00:52:21;;;;;;;2.72;1.50;;;19.80;99.90;;;;;;4163555;28;20026;-71
2023/08/23 00:54:22;;;;;;;2.40;1.48;;;19.80;99.90;;;;;;4163110;28;20091;-71
2023/08/23 00:56:23;;;;;;;3.00;1.77;;;19.90;99.90;;;;;;4162280;28;20030;-71
2023/08/23 00:58:24;;;;;;;1.70;1.30;;;19.80;99.90;;;;;;4163361;28;20030;-71
2023/08/23 01:00:26;;;;;;;1.33;1.23;;;19.80;99.90;;;;;;4161334;28;20049;-71
2023/08/23 01:02:26;;;;;;;2.55;1.60;;;19.80;99.90;;;;;;4163214;28;20144;-71
2023/08/23 01:04:27;;;;;;;2.67;1.08;;;19.80;99.90;;;;;;4158295;28;20054;-69
2023/08/23 01:06:50;;;;;;;2.30;1.38;;;19.90;99.90;;;;;;4160419;28;20109;-73
2023/08/23 01:09:15;;;;;;;2.45;1.50;;;19.90;99.90;;;;;;4161446;28;20069;-73
2023/08/23 01:11:43;;;;;;;2.80;1.38;;;19.90;99.90;;;;;;4157958;28;20114;-73
2023/08/23 01:13:55;;;;;;;3.33;1.38;;;19.80;99.90;;;;;;4158661;28;20782;-72
2023/08/23 01:15:58;;;;;;;2.20;1.70;;;19.80;99.90;;;;;;4158782;28;20033;-73
2023/08/23 01:18:01;;;;;;;2.08;1.52;;;19.80;99.90;;;;;;4160266;28;20446;-73
2023/08/23 01:20:02;;;;;;;2.22;1.23;;;19.70;99.90;;;;;;4159740;28;20049;-74
2023/08/23 01:22:05;;;;;;;2.13;1.50;;;19.70;99.90;;;;;;4159369;28;20516;-72
2023/08/23 01:24:09;;;;;;;2.13;1.60;;;19.70;99.90;;;;;;4160603;28;20107;-74
2023/08/23 01:26:10;;;;;;;2.08;1.42;;;19.70;99.90;;;;;;4159392;28;20047;-72
2023/08/23 01:28:10;;;;;;;2.45;1.50;;;19.70;99.90;;;;;;4160698;28;20053;-72
2023/08/23 01:30:14;;;;;;;1.50;1.40;;;19.70;99.90;;;;;;4160028;28;20037;-73
2023/08/23 01:32:21;;;;;;;1.95;1.50;;;19.70;99.90;;;;;;4159446;28;20037;-73
2023/08/23 01:34:32;;;;;;;1.92;1.50;;;19.70;99.90;;;;;;4160188;28;20485;-73
2023/08/23 01:36:33;;;;;;;1.65;1.45;;;19.70;99.90;;;;;;4158660;28;20033;-71
2023/08/23 01:38:35;;;;;;;2.00;1.27;;;19.70;99.90;;;;;;4157834;28;20623;-73
2023/08/23 01:40:36;;;;;;;2.95;1.40;;;19.70;99.90;;;;;;4159241;28;20026;-73
2023/08/23 01:42:39;;;;;;;3.38;1.85;;;19.70;99.90;;;;;;4158634;28;20201;-73
2023/08/23 01:44:43;;;;;;;2.72;1.60;;;19.70;99.90;;;;;;4160186;28;20144;-73
2023/08/23 01:46:43;;;;;;;3.28;1.67;;;19.70;99.90;;;;;;4155895;28;20050;-73
2023/08/23 01:48:44;;;;;;;1.75;1.40;;;19.70;99.90;;;;;;4160352;28;20047;-73
2023/08/23 01:50:45;;;;;;;1.98;1.63;;;19.70;99.90;;;;;;4160027;28;20033;-73
2023/08/23 01:52:45;;;;;;;1.55;1.45;;;19.70;99.90;;;;;;4159989;28;20037;-73
2023/08/23 01:54:46;;;;;;;2.30;1.50;;;19.60;99.90;;;;;;4159269;28;20049;-73
2023/08/23 01:56:46;;;;;;;2.10;1.35;;;19.60;99.90;;;;;;4159223;28;20053;-73
2023/08/23 01:58:47;;;;;;;2.25;1.42;;;19.60;99.90;;;;;;4160131;28;20421;-73
2023/08/23 02:00:48;;;;;;;4.90;1.83;;;19.60;99.90;;;;;;4160276;28;20083;-73
2023/08/23 02:02:48;;;;;;;1.63;1.35;;;19.60;99.90;;;;;;4157761;28;20037;-73
2023/08/23 02:04:49;;;;;;;5.90;1.60;;;19.50;99.90;;;;;;4158405;28;20386;-74
2023/08/23 02:06:49;;;;;;;3.40;1.60;;;19.60;99.90;;;;;;4159794;28;20037;-73
2023/08/23 02:08:50;;;;;;;2.85;1.60;;;19.50;99.90;;;;;;4160325;28;20022;-74
2023/08/23 02:10:51;;;;;;;2.67;1.80;;;19.50;99.90;;;;;;4158434;28;20053;-74
2023/08/23 02:12:51;;;;;;;2.22;1.85;;;19.50;99.90;;;;;;4160031;28;20021;-73
2023/08/23 02:14:52;;;;;;;1.90;1.63;;;19.50;99.90;;;;;;4159986;28;20036;-74
2023/08/23 02:16:53;;;;;;;1.33;1.23;;;19.50;99.90;;;;;;4158193;28;20042;-73
2023/08/23 02:18:54;;;;;;;2.45;1.63;;;19.50;99.90;;;;;;4160486;28;20409;-73
2023/08/23 02:20:58;;;;;;;2.88;1.83;;;19.40;99.90;;;;;;4161668;28;20057;-63
2023/08/23 02:22:58;;;;;;;4.28;2.53;;;19.50;99.90;;;;;;4160304;28;20022;-63
2023/08/23 02:24:59;;;;;;;2.33;1.90;;;19.40;99.90;;;;;;4162567;28;20044;-64
2023/08/23 02:27:00;;;;;;;4.38;2.13;;;19.40;99.90;;;;;;4159751;28;20076;-63
2023/08/23 02:29:01;;;;;;;2.38;2.10;;;19.40;99.90;;;;;;4160823;28;20029;-65
2023/08/23 02:31:03;;;;;;;4.18;1.95;;;19.40;99.90;;;;;;4159295;28;20398;-64
2023/08/23 02:33:03;;;;;;;2.72;1.92;;;19.40;99.90;;;;;;4161110;28;20033;-65
2023/08/23 02:35:04;;;;;;;3.63;1.90;;;19.40;99.90;;;;;;4162104;28;20079;-65
2023/08/23 02:37:05;;;;;;;2.38;2.05;;;19.40;99.90;;;;;;4160218;28;20029;-64
2023/08/23 02:39:06;;;;;;;1.92;1.60;;;19.40;99.90;;;;;;4161349;28;20026;-64
2023/08/23 02:41:06;;;;;;;2.33;1.88;;;19.40;99.90;;;;;;4161105;28;20101;-64
2023/08/23 02:43:07;;;;;;;2.42;1.80;;;19.40;99.90;;;;;;4162282;28;20034;-64
2023/08/23 02:45:08;;;;;;;3.60;1.70;;;19.40;99.90;;;;;;4161399;28;20025;-64
2023/08/23 02:47:08;;;;;;;4.75;1.80;;;19.30;99.90;;;;;;4161628;28;20080;-63
2023/08/23 02:49:09;;;;;;;5.63;1.95;;;19.30;99.90;;;;;;4161977;28;20046;-63
2023/08/23 02:51:09;;;;;;;2.83;1.90;;;19.30;99.90;;;;;;4161058;28;20072;-64
2023/08/23 02:53:10;;;;;;;2.53;1.80;;;19.30;99.90;;;;;;4161498;28;20034;-63
2023/08/23 02:55:11;;;;;;;3.65;2.25;;;19.30;99.90;;;;;;4160723;28;20021;-66
2023/08/23 02:57:12;;;;;;;3.50;2.00;;;19.30;99.90;;;;;;4161463;28;20037;-64
2023/08/23 02:59:13;;;;;;;2.70;1.90;;;19.30;99.90;;;;;;4160780;28;20037;-63
2023/08/23 03:01:14;;;;;;;2.20;1.73;;;19.30;99.90;;;;;;4160778;28;20064;-64
2023/08/23 03:03:14;;;;;;;3.60;1.38;;;19.30;99.90;;;;;;4160647;28;20118;-64
2023/08/23 03:05:15;;;;;;;3.25;2.08;;;19.30;99.90;;;;;;4155597;28;20056;-64
2023/08/23 03:07:16;;;;;;;2.35;1.80;;;19.30;99.90;;;;;;4161546;28;20120;-64
2023/08/23 03:09:16;;;;;;;4.05;2.22;;;19.30;99.90;;;;;;4162563;28;20026;-63
2023/08/23 03:11:17;;;;;;;1.83;1.67;;;19.30;99.90;;;;;;4159841;28;20493;-63
2023/08/23 03:13:17;;;;;;;2.25;1.98;;;19.20;99.90;;;;;;4160305;28;20026;-63
2023/08/23 03:15:19;;;;;;;2.47;1.83;;;19.20;99.90;;;;;;4160784;28;20045;-64
2023/08/23 03:17:20;;;;;;;2.90;1.55;;;19.20;99.90;;;;;;4160272;28;20037;-64
2023/08/23 03:19:20;;;;;;;2.17;1.95;;;19.20;99.90;;;;;;4161322;28;20068;-63
2023/08/23 03:21:21;;;;;;;2.83;1.90;;;19.10;99.90;;;;;;4160403;28;20538;-63
2023/08/23 03:23:23;;;;;;;3.72;1.70;;;19.10;99.90;;;;;;4159921;28;20045;-64
2023/08/23 03:25:23;;;;;;;2.10;1.90;;;19.10;99.90;;;;;;4158954;28;20029;-63
2023/08/23 03:27:25;;;;;;;3.83;1.60;;;19.20;99.90;;;;;;4161007;28;20050;-63
2023/08/23 03:29:25;;;;;;;2.20;1.98;;;19.20;99.90;;;;;;4160556;28;20052;-64
2023/08/23 03:31:26;;;;;;;2.40;2.00;;;19.10;99.90;;;;;;4160897;28;20033;-71
2023/08/23 03:33:26;;;;;;;4.88;2.25;;;19.10;99.90;;;;;;4159466;28;20412;-71
2023/08/23 03:35:27;;;;;;;1.77;1.60;;;19.10;99.90;;;;;;4160745;28;20128;-71
2023/08/23 03:37:29;;;;;;;3.15;2.20;;;19.10;99.90;;;;;;4161296;28;20033;-71
2023/08/23 03:39:29;;;;;;;2.30;2.10;;;19.10;99.90;;;;;;4159952;28;20057;-70
2023/08/23 03:41:30;;;;;;;2.28;2.05;;;19.10;99.90;;;;;;4160454;28;20026;-67
2023/08/23 03:43:31;;;;;;;2.15;1.92;;;19.10;99.90;;;;;;4161171;28;20128;-70
2023/08/23 03:45:32;;;;;;;2.10;1.90;;;19.10;99.90;;;;;;4160387;28;20113;-70
2023/08/23 03:47:33;;;;;;;2.83;1.80;;;19.10;99.90;;;;;;4161007;28;20109;-71
2023/08/23 03:49:35;;;;;;;3.75;2.00;;;19.10;99.90;;;;;;4160761;28;20028;-70
2023/08/23 03:51:35;;;;;;;3.40;1.98;;;19.00;99.90;;;;;;4160114;28;20025;-69
2023/08/23 03:53:36;;;;;;;3.53;2.28;;;19.00;99.90;;;;;;4160699;28;20490;-70
2023/08/23 03:55:37;;;;;;;4.47;1.95;;;19.00;99.90;;;;;;4157056;28;20048;-71
2023/08/23 03:57:37;;;;;;;3.28;1.95;;;19.00;99.90;;;;;;4159586;28;20037;-70
2023/08/23 03:59:38;;;;;;;1.80;1.67;;;19.00;99.90;;;;;;4160822;28;20030;-70
2023/08/23 04:01:39;;;;;;;2.50;1.55;;;19.00;99.90;;;;;;4159873;28;20486;-70
2023/08/23 04:03:39;;;;;;;1.83;1.42;;;18.90;99.90;;;;;;4160709;28;20072;-70
2023/08/23 04:05:40;;;;;;;3.40;1.92;;;18.90;99.90;;;;;;4162327;28;20386;-70
2023/08/23 04:07:41;;;;;;;1.70;1.50;;;18.90;99.90;;;;;;4160059;28;20045;-71
2023/08/23 04:09:41;;;;;;;1.90;1.70;;;18.90;99.90;;;;;;4159002;28;20060;-71
2023/08/23 04:11:42;;;;;;;1.92;1.73;;;18.90;99.90;;;;;;4157954;28;20061;-71
2023/08/23 04:13:42;;;;;;;2.00;1.80;;;18.90;99.90;;;;;;4157598;28;20034;-70
2023/08/23 04:15:46;;;;;;;3.33;2.40;;;18.90;99.90;;;;;;4157723;28;20067;-71
2023/08/23 04:17:48;;;;;;;2.63;1.70;;;18.80;99.90;;;;;;4160878;28;20038;-70
2023/08/23 04:19:48;;;;;;;2.63;1.90;;;18.90;99.90;;;;;;4160508;28;20113;-71
2023/08/23 04:21:49;;;;;;;4.57;2.40;;;18.80;99.90;;;;;;4158303;28;20037;-70
2023/08/23 04:23:50;;;;;;;3.50;2.20;;;18.80;99.90;;;;;;4162793;28;20116;-71
2023/08/23 04:25:50;;;;;;;3.30;2.10;;;18.80;99.90;;;;;;4163163;28;20050;-71
2023/08/23 04:27:51;;;;;;;4.18;2.40;;;18.80;99.90;;;;;;4163704;28;20077;-70
2023/08/23 04:29:52;;;;;;;3.20;2.53;;;18.70;99.90;;;;;;4159748;28;20040;-71
2023/08/23 04:31:52;;;;;;;3.38;2.17;;;18.70;99.90;;;;;;4162840;28;20056;-71
2023/08/23 04:33:54;;;;;;;3.08;2.35;;;18.70;99.90;;;;;;4163454;28;20029;-71
2023/08/23 04:35:54;;;;;;;2.67;1.83;;;18.70;99.90;;;;;;4162010;28;20037;-70
2023/08/23 04:37:55;;;;;;;3.28;2.25;;;18.70;99.90;;;;;;4162647;28;20388;-71
2023/08/23 04:39:58;;;;;;;3.63;2.10;;;18.70;99.90;;;;;;4165810;28;20385;-70
2023/08/23 04:41:59;;;;;;;4.25;2.42;;;18.70;99.90;;;;;;4161654;28;20037;-62
2023/08/23 04:43:59;;;;;;;5.28;2.40;;;18.80;99.90;;;;;;4161009;28;20037;-62
2023/08/23 04:46:00;;;;;;;3.75;2.40;;;18.70;99.90;;;;;;4160554;28;20116;-62
2023/08/23 04:48:00;;;;;;;5.85;2.40;;;18.70;99.90;;;;;;4162725;28;20029;-62
2023/08/23 04:50:01;;;;;;;4.43;2.65;;;18.70;99.90;;;;;;4162547;28;20064;-68
2023/08/23 04:52:02;;;;;;;3.30;2.40;;;18.70;99.90;;;;;;4160689;28;20112;-68
2023/08/23 04:54:03;;;;;;;4.57;2.88;;;18.70;99.90;;;;;;4161220;28;20040;-69
2023/08/23 04:56:04;;;;;;;5.35;2.75;;;18.70;99.90;;;;;;4162848;28;20112;-69
2023/08/23 04:58:04;;;;;;;4.22;2.72;;;18.80;99.90;;;;;;4158939;28;20410;-69
2023/08/23 05:00:08;;;;;;;3.83;2.45;;;18.80;99.90;;;;;;4163026;28;20120;-66
2023/08/23 05:02:09;;;;;;;3.72;2.60;;;18.80;99.90;;;;;;4158029;28;20033;-68
2023/08/23 05:04:10;;;;;;;3.08;2.42;;;18.70;99.90;;;;;;4161542;28;20050;-69
2023/08/23 05:06:11;;;;;;;4.40;3.10;;;18.70;99.90;;;;;;4157136;28;20129;-70
2023/08/23 05:08:12;;;;;;;4.38;2.78;;;18.70;99.90;;;;;;4161241;28;20045;-70
2023/08/23 05:10:13;;;;;;;5.93;2.78;;;18.70;99.90;;;;;;4160268;28;20037;-70
2023/08/23 05:12:14;;;;;;;3.08;2.40;;;18.70;99.90;;;;;;4156376;28;20033;-70
2023/08/23 05:14:14;;;;;;;3.95;2.60;;;18.70;99.90;;;;;;4158609;28;20048;-70
2023/08/23 05:16:15;;;;;;;3.30;2.20;;;18.70;99.90;;;;;;4159916;28;20061;-70
2023/08/23 05:18:15;;;;;;;3.38;2.10;;;18.80;99.90;;;;;;4162294;28;20551;-70
2023/08/23 05:20:17;;;;;;;3.38;2.33;;;18.80;99.90;;;;;;4160579;28;20029;-70
2023/08/23 05:22:18;;;;;;;4.10;2.95;;;18.80;99.90;;;;;;4158020;28;20125;-71
2023/08/23 05:24:18;;;;;;;5.72;2.80;;;18.80;99.90;;;;;;4160802;28;20513;-71
2023/08/23 05:26:19;;;;;;;3.15;2.53;;;18.80;99.90;;;;;;4162504;28;20032;-70
2023/08/23 05:28:21;;;;;;;2.65;2.45;;;18.90;99.90;;;;;;4162740;28;20429;-70
2023/08/23 05:30:22;;;;;;;3.80;2.60;;;18.90;99.90;;;;;;4160468;28;20094;-69
2023/08/23 05:32:22;;;;;;;7.72;3.13;;;18.90;99.90;;;;;;4166787;28;20083;-72
2023/08/23 05:34:23;;;;;;;4.55;3.10;;;19.00;99.90;;;;;;4160733;28;20033;-71
2023/08/23 05:36:24;;;;;;;5.63;2.90;;;19.00;99.90;;;;;;4161968;28;20413;-69
2023/08/23 05:38:25;;;;;;;4.78;3.60;;;19.00;99.90;;;;;;4163957;28;20037;-71
2023/08/23 05:40:25;;;;;;;7.35;2.95;;;19.10;99.90;;;;;;4150650;28;20067;-71
2023/08/23 05:42:26;;;;;;;4.55;3.08;;;19.10;99.90;;;;;;4164241;28;20053;-71
2023/08/23 05:44:26;;;;;;;4.00;2.90;;;19.20;99.90;;;;;;4160568;28;20112;-70
2023/08/23 05:46:27;;;;;;;4.40;2.80;;;19.20;99.90;;;;;;4162818;28;20473;-71
2023/08/23 05:48:27;;;;;;;7.97;3.13;;;19.20;99.90;;;;;;4162696;28;20033;-70
2023/08/23 05:50:28;;;;;;;13.18;4.43;;;19.30;99.90;;;;;;4160585;28;20041;-70
2023/08/23 05:52:29;;;;;;;9.85;4.10;;;19.30;99.90;;;;;;4160773;28;20048;-71
2023/08/23 05:54:31;;;;;;;12.52;4.15;;;19.40;99.90;;;;;;4157435;28;20061;-71
2023/08/23 05:56:32;;;;;;;9.63;3.38;;;19.40;99.90;;;;;;4159973;28;20033;-70
2023/08/23 05:58:32;;;;;;;4.82;3.30;;;19.50;99.90;;;;;;4162868;28;20539;-71
2023/08/23 06:00:33;;;;;;;10.93;3.30;;;19.50;99.90;;;;;;4159857;28;20042;-62
2023/08/23 06:02:33;;;;;;;6.57;3.15;;;19.60;99.90;;;;;;4162207;28;20042;-63
2023/08/23 06:04:35;;;;;;;7.00;3.85;;;19.70;99.90;;;;;;4160294;28;20045;-62
2023/08/23 06:06:35;;;;;;;8.32;4.07;;;19.70;99.90;;;;;;4160022;28;20453;-63
2023/08/23 06:08:36;;;;;;;8.82;4.20;;;19.80;99.90;;;;;;4159540;28;20034;-65
2023/08/23 06:10:36;;;;;;;8.77;3.75;;;19.80;99.90;;;;;;4159685;28;20045;-63
2023/08/23 06:12:37;;;;;;;7.20;3.95;;;19.80;99.90;;;;;;4160194;28;20037;-63
2023/08/23 06:14:38;;;;;;;8.02;3.92;;;19.90;99.90;;;;;;4159228;28;20440;-64
2023/08/23 06:16:38;;;;;;;6.45;3.80;;;19.90;99.90;;;;;;4158859;28;20065;-63
2023/08/23 06:18:39;;;;;;;4.47;3.75;;;20.00;99.90;;;;;;4159226;28;20554;-63
2023/08/23 06:20:43;;;;;;;6.63;3.65;;;20.00;99.90;;;;;;4159076;28;20103;-63
2023/08/23 06:22:44;;;;;;;7.03;4.28;;;20.10;99.90;;;;;;4159802;28;20133;-63
2023/08/23 06:24:44;;;;;;;5.85;4.47;;;20.10;99.90;;;;;;4154528;28;20037;-63
2023/08/23 06:26:46;;;;;;;5.40;4.15;;;20.20;99.90;;;;;;4159387;28;20029;-63
2023/08/23 06:28:47;;;;;;;6.75;5.15;;;20.20;99.90;;;;;;4160152;28;20034;-62
2023/08/23 06:30:47;;;;;;;8.05;4.88;;;20.20;99.90;;;;;;4161074;28;20064;-62
2023/08/23 06:32:48;;;;;;;6.60;4.80;;;20.30;99.90;;;;;;4161772;28;20531;-62
2023/08/23 06:34:50;;;;;;;7.50;5.22;;;20.30;99.90;;;;;;4162247;28;20057;-62
2023/08/23 06:36:51;;;;;;;8.07;5.30;;;20.30;99.90;;;;;;4166768;28;20083;-63
2023/08/23 06:38:51;;;;;;;10.40;5.80;;;20.40;99.90;;;;;;4160205;28;20061;-63
2023/08/23 06:40:52;;;;;;;7.68;5.80;;;20.40;99.90;;;;;;4160944;28;20065;-63
2023/08/23 06:42:52;;;;;;;9.25;5.65;;;20.40;99.90;;;;;;4161886;28;20068;-62
2023/08/23 06:44:53;;;;;;;6.57;5.00;;;20.50;99.90;;;;;;4161809;28;20041;-63
2023/08/23 06:46:54;;;;;;;6.03;4.32;;;20.70;99.90;;;;;;4160941;28;20524;-62
2023/08/23 06:48:55;;;;;;;7.53;4.30;;;20.90;99.90;;;;;;4160415;28;24429;-63
2023/08/23 06:50:58;;;;;;;6.13;3.95;;;21.20;99.90;;;;;;4161096;28;20397;-63
2023/08/23 06:52:59;;;;;;;6.57;4.63;;;21.50;99.90;;;;;;4160363;28;20037;-63
2023/08/23 06:55:00;;;;;;;5.55;4.22;;;21.90;99.90;;;;;;4160326;28;20068;-63
2023/08/23 06:57:00;;;;;;;6.32;4.38;;;22.20;99.90;;;;;;4160885;28;20033;-63
2023/08/23 06:59:01;;;;;;;7.03;4.10;;;22.60;99.90;;;;;;4161544;28;20420;-63
2023/08/23 07:01:01;;;;;;;4.80;3.58;;;23.00;99.90;;;;;;4163494;28;20029;-63
2023/08/23 07:03:02;;;;;;;6.07;4.28;;;23.30;99.90;;;;;;4159336;28;20056;-63
2023/08/23 07:05:03;;;;;;;7.22;4.00;;;23.60;99.90;;;;;;4161339;28;20482;-67
2023/08/23 07:07:04;;;;;;;6.95;4.50;;;23.90;99.90;;;;;;4160341;28;20021;-63
2023/08/23 07:09:06;;;;;;;5.28;3.65;;;24.20;99.90;;;;;;4160943;28;20032;-62
2023/08/23 07:11:06;;;;;;;5.05;3.33;;;24.50;99.90;;;;;;4159550;28;20351;-70
2023/08/23 07:13:07;;;;;;;5.90;3.75;;;24.70;99.90;;;;;;4161381;28;20041;-69
2023/08/23 07:15:08;;;;;;;5.20;3.45;;;25.00;99.90;;;;;;4160913;28;20033;-71
2023/08/23 07:17:08;;;;;;;4.18;3.20;;;25.20;99.90;;;;;;4160975;28;20025;-70
2023/08/23 07:19:09;;;;;;;5.40;3.88;;;25.40;99.90;;;;;;4160130;28;20164;-70
2023/08/23 07:21:10;;;;;;;5.80;3.28;;;25.60;99.90;;;;;;4159946;28;20029;-70
2023/08/23 07:23:10;;;;;;;6.70;3.33;;;25.80;99.90;;;;;;4162245;28;20061;-70
2023/08/23 07:25:11;;;;;;;7.53;3.75;;;25.90;99.90;;;;;;4159891;28;20033;-70
2023/08/23 07:27:12;;;;;;;4.68;2.80;;;26.00;99.90;;;;;;4160164;28;20032;-70
2023/08/23 07:29:15;;;;;;;4.15;3.10;;;26.10;99.90;;;;;;4160493;28;20482;-70
2023/08/23 07:31:16;;;;;;;4.47;3.08;;;26.20;99.90;;;;;;4158517;28;20026;-70
2023/08/23 07:33:17;;;;;;;4.57;2.92;;;26.20;99.90;;;;;;4159344;28;20028;-70
2023/08/23 07:35:17;;;;;;;5.07;3.17;;;26.30;99.90;;;;;;4160003;28;20041;-70
2023/08/23 07:37:18;;;;;;;8.65;2.92;;;26.30;99.90;;;;;;4164026;28;20060;-70
2023/08/23 07:39:18;;;;;;;5.60;3.20;;;26.40;99.90;;;;;;4159117;28;20025;-70
2023/08/23 07:41:19;;;;;;;4.60;2.97;;;26.40;99.90;;;;;;4160319;28;20030;-69
2023/08/23 07:43:20;;;;;;;5.38;3.47;;;26.40;99.90;;;;;;4159643;28;20374;-70
2023/08/23 07:45:21;;;;;;;5.95;3.67;;;26.40;99.90;;;;;;4160417;28;20105;-70
2023/08/23 07:47:21;;;;;;;5.95;2.72;;;26.40;99.90;;;;;;4160407;28;20421;-70
2023/08/23 07:49:22;;;;;;;4.05;2.70;;;26.40;99.90;;;;;;4159845;28;20025;-70
2023/08/23 07:51:22;;;;;;;5.78;2.58;;;26.40;99.90;;;;;;4159096;28;20034;-70
2023/08/23 07:53:23;;;;;;;4.07;2.75;;;26.50;99.90;;;;;;4159371;28;20126;-70
2023/08/23 07:55:24;;;;;;;6.28;4.05;;;26.50;99.90;;;;;;4160259;28;21127;-70
2023/08/23 07:57:25;;;;;;;4.45;2.70;;;26.60;99.90;;;;;;4159744;28;20490;-70
2023/08/23 07:59:25;;;;;;;3.80;2.80;;;26.60;99.90;;;;;;4159412;28;20160;-70
2023/08/23 08:01:26;;;;;;;4.18;2.70;;;26.60;99.90;;;;;;4156827;28;20049;-69
2023/08/23 08:03:28;;;;;;;5.38;3.03;;;26.70;99.90;;;;;;4157461;28;20052;-70
2023/08/23 08:05:30;;;;;;;4.93;3.22;;;26.70;99.90;;;;;;4158621;28;20026;-69
2023/08/23 08:07:30;;;;;;;3.95;2.35;;;26.80;99.90;;;;;;4163223;28;20124;-70
2023/08/23 08:09:31;;;;;;;5.53;3.20;;;26.80;99.90;;;;;;4160189;28;20496;-69
2023/08/23 08:11:31;;;;;;;6.82;3.50;;;26.80;99.90;;;;;;4159974;28;20041;-68
2023/08/23 08:13:32;;;;;;;7.40;3.63;;;26.80;99.90;;;;;;4160824;28;20548;-69
2023/08/23 08:15:33;;;;;;;4.38;3.03;;;26.80;99.90;;;;;;4160549;28;20076;-69
2023/08/23 08:17:34;;;;;;;8.40;2.80;;;26.80;99.90;;;;;;4160877;28;20509;-69
2023/08/23 08:19:34;;;;;;;5.82;2.97;;;26.90;99.90;;;;;;4160530;28;20053;-68
2023/08/23 08:21:36;;;;;;;7.20;3.70;;;26.90;99.90;;;;;;4155128;28;20049;-69
2023/08/23 08:23:37;;;;;;;5.03;3.00;;;26.90;99.90;;;;;;4162272;28;20112;-68
2023/08/23 08:25:39;;;;;;;5.82;3.15;;;27.00;99.90;;;;;;4157895;28;20029;-68
2023/08/23 08:27:40;;;;;;;6.97;3.83;;;27.00;99.90;;;;;;4161107;28;20548;-69
2023/08/23 08:29:40;;;;;;;9.82;3.47;;;27.00;99.90;;;;;;4161667;28;20049;-61
2023/08/23 08:31:41;;;;;;;4.57;2.63;;;27.00;99.90;;;;;;4160051;28;20037;-61
2023/08/23 08:33:42;;;;;;;4.47;2.75;;;27.10;99.90;;;;;;4159321;28;20033;-61
2023/08/23 08:35:43;;;;;;;5.65;3.05;;;27.20;99.90;;;;;;4173648;28;20060;-61
2023/08/23 08:37:43;;;;;;;6.15;3.33;;;27.20;99.90;;;;;;4160494;28;20523;-61
2023/08/23 08:39:44;;;;;;;4.55;2.70;;;27.20;99.90;;;;;;4160504;28;20029;-76
2023/08/23 08:41:45;;;;;;;5.97;2.47;;;27.30;99.90;;;;;;4159997;28;20456;-64
2023/08/23 08:43:46;;;;;;;5.65;3.30;;;27.30;99.90;;;;;;4160570;28;20609;-64
2023/08/23 08:45:47;;;;;;;4.93;2.75;;;27.40;99.90;;;;;;4160078;28;20034;-64
2023/08/23 08:47:48;;;;;;;6.05;2.92;;;27.50;99.90;;;;;;4158910;28;20600;-64
2023/08/23 08:49:49;;;;;;;9.93;3.60;;;27.40;99.00;;;;;;4159927;28;20116;-64
2023/08/23 08:51:51;;;;;;;8.02;3.25;;;27.40;99.90;;;;;;4159852;28;20481;-64
2023/08/23 08:53:54;;;;;;;6.75;2.45;;;27.40;99.10;;;;;;4160627;28;20120;-64
2023/08/23 08:55:54;;;;;;;6.82;2.75;;;27.50;99.50;;;;;;4159861;28;20124;-64
2023/08/23 08:57:56;;;;;;;4.72;2.38;;;27.50;99.50;;;;;;4158015;28;20041;-64
2023/08/23 08:59:59;;;;;;;4.28;2.65;;;27.50;98.50;;;;;;4161445;28;23890;-64
2023/08/23 09:02:01;;;;;;;4.75;2.15;;;27.60;98.10;;;;;;4159658;28;20092;-64
2023/08/23 09:04:03;;;;;;;4.35;2.40;;;27.60;98.00;;;;;;4157976;28;20428;-64
2023/08/23 09:06:03;;;;;;;6.00;2.65;;;27.50;97.50;;;;;;4159371;28;20049;-65
2023/08/23 09:08:05;;;;;;;6.97;2.95;;;27.50;97.20;;;;;;4160286;28;20088;-64
2023/08/23 09:10:06;;;;;;;4.90;2.15;;;27.40;97.90;;;;;;4162471;28;20045;-65
2023/08/23 09:12:07;;;;;;;3.25;2.10;;;27.50;97.70;;;;;;4162761;28;20041;-67
2023/08/23 09:14:20;;;;;;;5.07;2.33;;;27.50;99.20;;;;;;4162321;28;20493;-64
2023/08/23 09:16:23;;;;;;;6.35;2.50;;;27.50;99.00;;;;;;4162609;28;20029;-64
2023/08/23 09:18:24;;;;;;;4.30;2.20;;;27.50;99.00;;;;;;4166036;28;20090;-64
2023/08/23 09:20:25;;;;;;;4.22;2.63;;;27.60;97.90;;;;;;4165833;28;20068;-64
2023/08/23 09:22:25;;;;;;;3.70;2.38;;;27.50;96.30;;;;;;4162825;28;20045;-65
2023/08/23 09:24:26;;;;;;;5.47;2.25;;;27.40;97.00;;;;;;4165174;28;20033;-64
2023/08/23 09:26:26;;;;;;;4.55;1.98;;;27.50;97.90;;;;;;4162476;28;20041;-64
2023/08/23 09:28:28;;;;;;;4.00;2.08;;;27.60;97.70;;;;;;4163288;28;20041;-64
2023/08/23 09:30:29;;;;;;;3.13;2.00;;;27.60;97.80;;;;;;4160504;28;20057;-64
2023/08/23 09:32:30;;;;;;;5.13;1.70;;;27.70;97.60;;;;;;4157854;28;20037;-64
2023/08/23 09:34:31;;;;;;;3.67;2.17;;;27.70;97.20;;;;;;4163105;28;20107;-65
2023/08/23 09:36:40;;;;;;;3.28;2.20;;;27.70;96.80;;;;;;4157709;28;20041;-64
2023/08/23 09:38:41;;;;;;;3.00;1.80;;;27.80;98.10;;;;;;4157067;28;20033;-64
2023/08/23 09:40:41;;;;;;;3.15;1.85;;;27.80;97.30;;;;;;4161343;28;20033;-65
2023/08/23 09:42:43;;;;;;;3.00;1.90;;;27.90;98.60;;;;;;4161096;28;20049;-64
2023/08/23 09:44:45;;;;;;;3.38;2.25;;;27.90;96.90;;;;;;4161171;28;20045;-64
2023/08/23 09:46:47;;;;;;;4.13;2.47;;;27.90;96.40;;;;;;4161371;28;20428;-64
2023/08/23 09:48:49;;;;;;;9.45;2.30;;;28.00;95.80;;;;;;4162965;28;20045;-64
2023/08/23 09:50:51;;;;;;;2.95;1.90;;;28.00;97.80;;;;;;4162293;28;20037;-68
2023/08/23 09:52:59;;;;;;;5.47;2.43;;;28.00;97.20;;;;;;4162492;28;20026;-69
2023/08/23 09:55:03;;;;;;;5.13;2.50;;;28.00;97.00;;;;;;4162681;28;20272;-68
2023/08/23 09:57:05;;;;;;;5.18;2.28;;;28.00;97.10;;;;;;4162099;28;20087;-68
2023/08/23 09:59:06;;;;;;;4.50;2.30;;;28.00;98.30;;;;;;4162133;28;20042;-59
2023/08/23 10:01:08;;;;;;;2.75;1.70;;;28.00;96.60;;;;;;4156618;28;20037;-60
2023/08/23 10:03:09;;;;;;;1.93;1.60;;;28.10;96.60;;;;;;4162822;28;20041;-61
2023/08/23 10:05:11;;;;;;;3.70;2.08;;;28.10;96.90;;;;;;4159123;28;20083;-62
2023/08/23 10:07:15;;;;;;;3.25;2.28;;;28.10;96.50;;;;;;4162207;28;20366;-60
2023/08/23 10:09:16;;;;;;;3.72;1.80;;;28.20;98.10;;;;;;4161308;28;20095;-60
2023/08/23 10:11:18;;;;;;;3.10;1.70;;;28.30;98.60;;;;;;4162068;28;20144;-69
2023/08/23 10:13:21;;;;;;;3.83;1.80;;;28.30;97.10;;;;;;4161184;28;20116;-68
2023/08/23 10:15:28;;;;;;;4.05;2.25;;;28.40;97.70;;;;;;4160966;28;20021;-68
2023/08/23 10:17:30;;;;;;;4.43;2.00;;;28.40;98.20;;;;;;4160365;28;20088;-68
2023/08/23 10:19:31;;;;;;;;;;;28.50;97.70;;;;;;4161535;28;20026;-69
2023/08/23 10:21:32;;;;;;;2.67;1.98;;;28.50;97.70;;;;;;4164690;28;19920;-69
2023/08/23 10:23:34;;;;;;;3.40;1.98;;;28.50;96.80;;;;;;4162164;28;20805;-69
2023/08/23 10:25:37;;;;;;;3.13;1.52;;;28.50;98.30;;;;;;4158024;28;20033;-68
2023/08/23 10:27:37;;;;;;;3.35;1.80;;;28.60;97.80;;;;;;4160930;28;20041;-68
2023/08/23 10:29:38;;;;;;;2.17;1.90;;;28.60;97.10;;;;;;4162178;28;20029;-69
2023/08/23 10:31:51;;;;;;;3.05;1.83;;;28.60;96.50;;;;;;4159445;28;20056;-68
2023/08/23 10:33:56;;;;;;;2.20;1.70;;;28.60;97.80;;;;;;4162534;28;20041;-69